Time;durP1;ratioP1;P1;durP2;ratioP2;P2;SDS_P1;SDS_P2;PMS_P1;PMS_P2;Temp;Humidity;BMP_temperature;BMP_pressure;BME280_temperature;BME280_humidity;BME280_pressure;Samples;Min_cycle;Max_cycle;Signal;HPM_P1;HPM_P2
2022/12/28 00:01:20;;;;;;;52.72;32.38;;;;;;;;;;6187680;28;20109;-73
2022/12/28 00:04:21;;;;;;;56.28;33.30;;;;;;;;;;6194015;28;20050;-74
2022/12/28 00:07:23;;;;;;;54.17;32.75;;;;;;;;;;6189713;28;20050;-72
2022/12/28 00:10:25;;;;;;;55.25;32.50;;;;;;;;;;6189678;28;20070;-73
2022/12/28 00:13:26;;;;;;;55.08;33.15;;;;;;;;;;6192567;28;20043;-73
2022/12/28 00:16:31;;;;;;;63.30;34.72;;;;;;;;;;6199174;28;20330;-73
2022/12/28 00:19:32;;;;;;;66.93;36.03;;;;;;;;;;6197023;28;20342;-73
2022/12/28 00:22:34;;;;;;;60.42;34.47;;;;;;;;;;6193118;28;20054;-73
2022/12/28 00:25:36;;;;;;;63.22;34.45;;;;;;;;;;6196738;28;20054;-73
2022/12/28 00:28:38;;;;;;;54.00;32.70;;;;;;;;;;6194834;28;20054;-72
2022/12/28 00:31:41;;;;;;;54.75;33.00;;;;;;;;;;6195314;28;20276;-73
2022/12/28 00:34:42;;;;;;;55.00;32.65;;;;;;;;;;6195311;28;20047;-73
2022/12/28 00:37:44;;;;;;;52.45;32.85;;;;;;;;;;6197537;28;20050;-73
2022/12/28 00:40:46;;;;;;;51.00;31.38;;;;;;;;;;6194464;28;20050;-73
2022/12/28 00:43:47;;;;;;;47.90;30.25;;;;;;;;;;6195599;28;20062;-72
2022/12/28 00:46:50;;;;;;;47.90;30.95;;;;;;;;;;6192940;28;20070;-73
2022/12/28 00:49:52;;;;;;;47.38;30.65;;;;;;;;;;6194875;28;20055;-73
2022/12/28 00:52:54;;;;;;;45.78;30.08;;;;;;;;;;6199159;28;20042;-73
2022/12/28 00:55:55;;;;;;;44.13;28.73;;;;;;;;;;6191552;28;20093;-73
2022/12/28 00:58:58;;;;;;;46.15;29.75;;;;;;;;;;6194995;28;20105;-71
2022/12/28 01:02:01;;;;;;;49.47;30.88;;;;;;;;;;6195243;28;20090;-72
2022/12/28 01:05:02;;;;;;;44.75;29.67;;;;;;;;;;6192873;28;20058;-70
2022/12/28 01:08:04;;;;;;;48.78;31.20;;;;;;;;;;6195904;28;20281;-73
2022/12/28 01:11:08;;;;;;;44.35;30.15;;;;;;;;;;6194262;28;20089;-72
2022/12/28 01:14:09;;;;;;;43.67;29.73;;;;;;;;;;6198418;28;20054;-73
2022/12/28 01:17:12;;;;;;;45.47;30.38;;;;;;;;;;6191781;28;20039;-73
2022/12/28 01:20:14;;;;;;;47.30;30.38;;;;;;;;;;6191430;28;20055;-73
2022/12/28 01:23:16;;;;;;;44.05;29.25;;;;;;;;;;6194759;28;20269;-72
2022/12/28 01:26:17;;;;;;;44.30;30.38;;;;;;;;;;6192532;28;20141;-72
2022/12/28 01:29:19;;;;;;;47.70;30.45;;;;;;;;;;6198423;28;20050;-72
2022/12/28 01:32:22;;;;;;;44.53;29.20;;;;;;;;;;6194191;28;20341;-73
2022/12/28 01:35:24;;;;;;;44.03;29.75;;;;;;;;;;6194739;28;20046;-73
2022/12/28 01:38:25;;;;;;;46.78;31.13;;;;;;;;;;6195822;28;20046;-73
2022/12/28 01:41:29;;;;;;;43.17;29.45;;;;;;;;;;6197941;28;20243;-73
2022/12/28 01:44:49;;;;;;;44.40;29.80;;;;;;;;;;6195588;28;20266;-73
2022/12/28 01:47:53;;;;;;;43.50;30.20;;;;;;;;;;6195770;28;20080;-73
2022/12/28 01:50:55;;;;;;;49.35;29.52;;;;;;;;;;6194407;28;20046;-72
2022/12/28 01:53:58;;;;;;;47.22;30.85;;;;;;;;;;6195404;28;20098;-73
2022/12/28 01:57:00;;;;;;;49.03;31.65;;;;;;;;;;6191627;28;20908;-73
2022/12/28 02:00:04;;;;;;;49.45;32.53;;;;;;;;;;6196368;28;20092;-72
2022/12/28 02:03:10;;;;;;;49.38;32.17;;;;;;;;;;6193363;28;20053;-72
2022/12/28 02:06:12;;;;;;;49.65;32.60;;;;;;;;;;6192657;28;20051;-73
2022/12/28 02:09:18;;;;;;;49.25;31.40;;;;;;;;;;6201493;28;20042;-72
2022/12/28 02:12:20;;;;;;;46.38;30.25;;;;;;;;;;6217878;28;20046;-72
2022/12/28 02:15:22;;;;;;;46.58;29.70;;;;;;;;;;6217197;28;20083;-73
2022/12/28 02:18:25;;;;;;;44.97;29.77;;;;;;;;;;6218041;28;20069;-71
2022/12/28 02:21:34;;;;;;;46.55;30.25;;;;;;;;;;6220545;28;20075;-74
2022/12/28 02:24:51;;;;;;;45.72;29.67;;;;;;;;;;6218221;28;20164;-70
2022/12/28 02:28:00;;;;;;;43.65;29.63;;;;;;;;;;6213512;28;20361;-73
2022/12/28 02:31:07;;;;;;;43.70;29.00;;;;;;;;;;6219661;28;20046;-72
2022/12/28 02:34:14;;;;;;;46.60;29.05;;;;;;;;;;6221241;28;20050;-73
2022/12/28 02:37:19;;;;;;;42.97;28.33;;;;;;;;;;6218334;28;20058;-73
2022/12/28 02:40:24;;;;;;;41.17;28.25;;;;;;;;;;6216733;28;20117;-73
2022/12/28 02:43:25;;;;;;;40.40;27.63;;;;;;;;;;6219015;28;20046;-73
2022/12/28 02:50:06;;;;;;;41.25;28.40;;;;;;;;;;6218062;28;20047;-71
2022/12/28 02:53:33;;;;;;;41.22;27.85;;;;;;;;;;6217206;28;20297;-72
2022/12/28 02:56:39;;;;;;;40.92;27.55;;;;;;;;;;6217435;28;20041;-72
2022/12/28 02:59:52;;;;;;;43.42;28.30;;;;;;;;;;6217795;28;20073;-75
2022/12/28 03:03:00;;;;;;;41.42;28.40;;;;;;;;;;6219619;28;20046;-72
2022/12/28 03:09:32;;;;;;;41.58;29.40;;;;;;;;;;6213079;28;20282;-73
2022/12/28 03:12:39;;;;;;;44.05;28.80;;;;;;;;;;6198276;28;20113;-72
2022/12/28 03:15:41;;;;;;;41.03;27.92;;;;;;;;;;6194754;28;20183;-73
2022/12/28 03:32:06;;;;;;;43.28;26.95;;;;;;;;;;6198164;28;20054;-73
2022/12/28 03:35:10;;;;;;;44.55;28.38;;;;;;;;;;6193736;28;20160;-71
2022/12/28 03:38:14;;;;;;;44.15;29.02;;;;;;;;;;6196734;28;20050;-73
2022/12/28 03:41:21;;;;;;;43.53;28.83;;;;;;;;;;6191371;28;20051;-73
2022/12/28 03:44:25;;;;;;;42.58;28.45;;;;;;;;;;6190199;28;20050;-72
2022/12/28 03:47:29;;;;;;;40.40;28.10;;;;;;;;;;6194700;28;20042;-73
2022/12/28 03:50:35;;;;;;;44.42;28.23;;;;;;;;;;6195898;28;20050;-73
2022/12/28 03:53:39;;;;;;;42.20;28.73;;;;;;;;;;6202333;28;20130;-73
2022/12/28 03:56:45;;;;;;;44.67;28.30;;;;;;;;;;6195903;28;20046;-72
2022/12/28 03:59:47;;;;;;;41.97;28.65;;;;;;;;;;6199897;28;20046;-73
2022/12/28 04:02:49;;;;;;;43.28;28.67;;;;;;;;;;6197211;28;20046;-73
2022/12/28 04:05:52;;;;;;;44.40;28.52;;;;;;;;;;6197621;28;20050;-73
2022/12/28 04:08:53;;;;;;;41.20;27.75;;;;;;;;;;6197474;28;20050;-72
2022/12/28 04:11:55;;;;;;;44.38;27.60;;;;;;;;;;6211532;28;20054;-73
2022/12/28 04:14:57;;;;;;;40.53;26.38;;;;;;;;;;6198867;28;20104;-73
2022/12/28 04:18:00;;;;;;;41.25;27.73;;;;;;;;;;6195154;28;20058;-73
2022/12/28 04:21:03;;;;;;;43.50;27.20;;;;;;;;;;6195156;28;20053;-72
2022/12/28 04:24:05;;;;;;;;;;;;;;;;;;6202387;28;20113;-73
2022/12/28 04:27:07;;;;;;;41.85;26.63;;;;;;;;;;6194075;28;19918;-72
2022/12/28 04:30:10;;;;;;;38.20;26.38;;;;;;;;;;6197195;28;20101;-73
2022/12/28 04:33:11;;;;;;;42.25;27.10;;;;;;;;;;6194664;28;20215;-73
2022/12/28 04:36:16;;;;;;;39.85;26.10;;;;;;;;;;6194167;28;20355;-70
2022/12/28 04:39:18;;;;;;;39.78;27.13;;;;;;;;;;6194188;28;20056;-73
2022/12/28 04:42:19;;;;;;;41.17;26.88;;;;;;;;;;6196867;28;20338;-71
2022/12/28 04:45:21;;;;;;;44.83;27.27;;;;;;;;;;6193238;28;20057;-73
2022/12/28 04:48:23;;;;;;;41.55;26.60;;;;;;;;;;6197310;28;20369;-70
2022/12/28 04:51:27;;;;;;;37.05;24.92;;;;;;;;;;6195643;28;20042;-73
2022/12/28 04:54:29;;;;;;;42.00;26.58;;;;;;;;;;6195436;28;20051;-73
2022/12/28 04:57:30;;;;;;;42.00;27.08;;;;;;;;;;6197250;28;20046;-73
2022/12/28 05:00:32;;;;;;;41.88;25.73;;;;;;;;;;6193478;28;20054;-73
2022/12/28 05:03:34;;;;;;;37.70;25.38;;;;;;;;;;6196556;28;20050;-73
2022/12/28 05:06:37;;;;;;;39.92;26.27;;;;;;;;;;6194698;28;20049;-73
2022/12/28 05:09:39;;;;;;;42.28;26.73;;;;;;;;;;6195069;28;20514;-73
2022/12/28 05:12:40;;;;;;;43.58;25.65;;;;;;;;;;6196097;28;20073;-73
2022/12/28 05:15:42;;;;;;;39.15;26.55;;;;;;;;;;6194754;28;20053;-73
2022/12/28 05:18:44;;;;;;;38.08;26.13;;;;;;;;;;6197654;28;20097;-73
2022/12/28 05:21:47;;;;;;;37.10;26.23;;;;;;;;;;6193698;28;20118;-73
2022/12/28 05:24:48;;;;;;;39.17;25.77;;;;;;;;;;6193969;28;20054;-73
2022/12/28 05:27:51;;;;;;;41.40;26.58;;;;;;;;;;6195288;28;20239;-73
2022/12/28 05:30:53;;;;;;;37.78;25.05;;;;;;;;;;6194771;28;20100;-73
2022/12/28 05:33:55;;;;;;;38.85;26.02;;;;;;;;;;6193195;28;20051;-73
2022/12/28 05:36:58;;;;;;;40.22;27.02;;;;;;;;;;6196240;28;20054;-74
2022/12/28 05:40:00;;;;;;;39.88;25.20;;;;;;;;;;6194105;28;20841;-73
2022/12/28 05:43:02;;;;;;;38.17;26.30;;;;;;;;;;6192180;28;20054;-73
2022/12/28 05:46:05;;;;;;;42.15;26.50;;;;;;;;;;6192891;28;20042;-73
2022/12/28 05:49:08;;;;;;;40.72;26.40;;;;;;;;;;6194499;28;20046;-73
2022/12/28 05:52:11;;;;;;;41.75;25.73;;;;;;;;;;6194552;28;20291;-70
2022/12/28 05:55:12;;;;;;;37.00;25.25;;;;;;;;;;6196687;28;20135;-73
2022/12/28 05:58:14;;;;;;;35.65;24.30;;;;;;;;;;6192697;28;20050;-74
2022/12/28 06:01:17;;;;;;;39.17;26.00;;;;;;;;;;6193995;28;20059;-73
2022/12/28 06:04:20;;;;;;;41.75;25.92;;;;;;;;;;6193845;28;20054;-73
2022/12/28 06:07:23;;;;;;;38.85;25.80;;;;;;;;;;6195711;28;20065;-72
2022/12/28 06:10:24;;;;;;;40.70;25.65;;;;;;;;;;6190437;28;20088;-75
2022/12/28 06:13:27;;;;;;;41.88;26.60;;;;;;;;;;6195852;28;20042;-74
2022/12/28 06:16:31;;;;;;;38.70;27.02;;;;;;;;;;6192048;28;20054;-74
2022/12/28 06:19:32;;;;;;;;;;;;;;;;;;6192737;28;20050;-71
2022/12/28 06:22:36;;;;;;;40.88;25.02;;;;;;;;;;6194645;28;19921;-71
2022/12/28 06:25:38;;;;;;;38.47;25.03;;;;;;;;;;6193035;28;20088;-72
2022/12/28 06:28:41;;;;;;;38.45;25.25;;;;;;;;;;6194382;28;20171;-70
2022/12/28 06:31:46;;;;;;;42.55;26.40;;;;;;;;;;6191284;28;20062;-72
2022/12/28 06:34:48;;;;;;;40.03;25.00;;;;;;;;;;6192068;28;20065;-74
2022/12/28 06:37:51;;;;;;;39.08;25.73;;;;;;;;;;6193649;28;20081;-73
2022/12/28 06:40:53;;;;;;;41.40;26.10;;;;;;;;;;6193258;28;20385;-70
2022/12/28 06:43:55;;;;;;;38.45;26.05;;;;;;;;;;6193341;28;20259;-73
2022/12/28 06:46:57;;;;;;;38.65;25.63;;;;;;;;;;6194810;28;20067;-72
2022/12/28 06:49:59;;;;;;;42.13;26.30;;;;;;;;;;6191703;28;20046;-74
2022/12/28 06:53:01;;;;;;;36.13;24.35;;;;;;;;;;6193225;28;20043;-73
2022/12/28 06:56:05;;;;;;;35.28;25.55;;;;;;;;;;6193818;28;20054;-73
2022/12/28 06:59:08;;;;;;;37.83;24.50;;;;;;;;;;6194935;28;20038;-73
2022/12/28 07:02:09;;;;;;;40.63;25.90;;;;;;;;;;6163413;28;20104;-73
2022/12/28 07:05:12;;;;;;;40.20;25.83;;;;;;;;;;6196447;28;20080;-73
2022/12/28 07:08:15;;;;;;;42.70;25.55;;;;;;;;;;6191557;28;20043;-73
2022/12/28 07:11:18;;;;;;;36.95;24.95;;;;;;;;;;6217699;28;20132;-71
2022/12/28 07:14:20;;;;;;;42.27;25.20;;;;;;;;;;6269445;28;20041;-70
2022/12/28 07:17:22;;;;;;;42.15;25.20;;;;;;;;;;6250093;28;20049;-71
2022/12/28 07:20:23;;;;;;;40.70;24.30;;;;;;;;;;6247080;28;20064;-72
2022/12/28 07:23:29;;;;;;;37.70;23.65;;;;;;;;;;6247692;28;20050;-73
2022/12/28 07:26:32;;;;;;;36.22;23.08;;;;;;;;;;6250345;28;20053;-72
2022/12/28 07:29:34;;;;;;;36.42;23.10;;;;;;;;;;6252044;28;20057;-73
2022/12/28 07:32:37;;;;;;;33.35;21.63;;;;;;;;;;6249140;28;20106;-73
2022/12/28 07:35:38;;;;;;;32.92;21.88;;;;;;;;;;6249632;28;20060;-73
2022/12/28 07:38:41;;;;;;;37.40;22.33;;;;;;;;;;6252224;28;20284;-70
2022/12/28 07:41:43;;;;;;;35.17;22.98;;;;;;;;;;6251571;28;20045;-72
2022/12/28 07:44:46;;;;;;;33.88;22.02;;;;;;;;;;6275077;28;20052;-71
2022/12/28 07:47:48;;;;;;;34.80;21.98;;;;;;;;;;6278427;28;20052;-72
2022/12/28 07:50:49;;;;;;;37.17;23.13;;;;;;;;;;6276235;28;20087;-73
2022/12/28 07:53:53;;;;;;;37.05;22.80;;;;;;;;;;6274809;28;20057;-72
2022/12/28 07:56:55;;;;;;;32.80;21.83;;;;;;;;;;6278603;28;20040;-73
2022/12/28 07:59:57;;;;;;;32.53;22.17;;;;;;;;;;6278331;28;20045;-73
2022/12/28 08:02:58;;;;;;;39.35;22.73;;;;;;;;;;6249597;28;20045;-70
2022/12/28 08:06:04;;;;;;;32.13;21.75;;;;;;;;;;6249689;28;20049;-73
2022/12/28 08:09:10;;;;;;;35.83;22.20;;;;;;;;;;6262407;28;20091;-73
2022/12/28 08:12:11;;;;;;;35.08;22.35;;;;;;;;;;6274596;28;20045;-73
2022/12/28 08:15:13;;;;;;;37.33;22.40;;;;;;;;;;6275730;28;20355;-73
2022/12/28 08:18:15;;;;;;;35.17;22.30;;;;;;;;;;6275775;28;20098;-72
2022/12/28 08:21:18;;;;;;;33.50;22.00;;;;;;;;;;6274616;28;20049;-73
2022/12/28 08:24:22;;;;;;;40.10;23.95;;;;;;;;;;6278441;28;20234;-73
2022/12/28 08:27:24;;;;;;;37.63;23.55;;;;;;;;;;6276319;28;20049;-73
2022/12/28 08:30:25;;;;;;;37.58;23.63;;;;;;;;;;6275644;28;20256;-72
2022/12/28 08:33:27;;;;;;;39.85;24.73;;;;;;;;;;6277614;28;20045;-73
2022/12/28 08:36:29;;;;;;;37.67;23.02;;;;;;;;;;6281188;28;20102;-72
2022/12/28 08:39:32;;;;;;;35.47;23.23;;;;;;;;;;6280376;28;20053;-72
2022/12/28 08:42:34;;;;;;;36.45;23.17;;;;;;;;;;6278000;28;20055;-73
2022/12/28 08:45:35;;;;;;;37.15;23.35;;;;;;;;;;6281633;28;20053;-73
2022/12/28 08:48:37;;;;;;;37.55;23.70;;;;;;;;;;6282030;28;20040;-73
2022/12/28 08:51:40;;;;;;;37.05;23.30;;;;;;;;;;6279058;28;20104;-73
2022/12/28 08:54:43;;;;;;;36.22;23.50;;;;;;;;;;6279067;28;20053;-73
2022/12/28 08:57:45;;;;;;;45.78;25.95;;;;;;;;;;6281269;28;20045;-73
2022/12/28 09:00:46;;;;;;;38.03;24.67;;;;;;;;;;6279784;28;20053;-73
2022/12/28 09:03:50;;;;;;;39.08;26.55;;;;;;;;;;6278091;28;20053;-72
2022/12/28 09:06:51;;;;;;;41.35;27.10;;;;;;;;;;6277937;28;20071;-73
2022/12/28 09:09:54;;;;;;;42.65;27.15;;;;;;;;;;6277641;28;20097;-72
2022/12/28 09:12:56;;;;;;;41.50;26.60;;;;;;;;;;6278748;28;20104;-72
2022/12/28 09:15:58;;;;;;;40.83;25.98;;;;;;;;;;6278877;28;20059;-73
2022/12/28 09:19:02;;;;;;;39.40;25.63;;;;;;;;;;6277059;28;20079;-72
2022/12/28 09:22:03;;;;;;;42.45;27.55;;;;;;;;;;6277852;28;20044;-73
2022/12/28 09:25:07;;;;;;;41.30;26.60;;;;;;;;;;6275473;28;20049;-72
2022/12/28 09:28:09;;;;;;;44.08;25.58;;;;;;;;;;6276776;28;20057;-73
2022/12/28 09:31:10;;;;;;;41.50;25.73;;;;;;;;;;6279235;28;20060;-72
2022/12/28 09:34:12;;;;;;;42.92;27.48;;;;;;;;;;6277732;28;20341;-72
2022/12/28 09:37:14;;;;;;;48.55;29.10;;;;;;;;;;6279084;28;20333;-73
2022/12/28 09:40:17;;;;;;;44.00;28.30;;;;;;;;;;6278815;28;20218;-73
2022/12/28 09:43:19;;;;;;;44.65;26.98;;;;;;;;;;6277248;28;20086;-73
2022/12/28 09:46:22;;;;;;;47.83;28.70;;;;;;;;;;6278237;28;20049;-73
2022/12/28 09:49:27;;;;;;;45.97;27.10;;;;;;;;;;6276688;28;20098;-73
2022/12/28 09:52:30;;;;;;;47.15;29.38;;;;;;;;;;6278040;28;20385;-72
2022/12/28 09:55:35;;;;;;;42.78;28.25;;;;;;;;;;6278589;28;20045;-74
2022/12/28 09:58:40;;;;;;;48.22;28.38;;;;;;;;;;6277489;28;20051;-73
2022/12/28 10:01:43;;;;;;;44.88;27.75;;;;;;;;;;6280938;28;20045;-70
2022/12/28 10:04:45;;;;;;;47.67;30.70;;;;;;;;;;6276350;28;20225;-73
2022/12/28 10:07:47;;;;;;;47.25;28.70;;;;;;;;;;6276576;28;20166;-72
2022/12/28 10:10:51;;;;;;;50.33;29.63;;;;;;;;;;6276498;28;20263;-72
2022/12/28 10:13:55;;;;;;;46.97;29.45;;;;;;;;;;6277029;28;20353;-73
2022/12/28 10:16:57;;;;;;;52.03;32.30;;;;;;;;;;6275022;28;20086;-73
2022/12/28 10:19:59;;;;;;;56.03;31.20;;;;;;;;;;6277273;28;20069;-72
2022/12/28 10:23:00;;;;;;;54.40;32.42;;;;;;;;;;6275616;28;20048;-73
2022/12/28 10:26:05;;;;;;;51.97;31.27;;;;;;;;;;6274841;28;20135;-73
2022/12/28 10:29:13;;;;;;;54.08;32.90;;;;;;;;;;6278319;28;20198;-73
2022/12/28 10:32:15;;;;;;;58.78;34.45;;;;;;;;;;6275282;28;20079;-73
2022/12/28 10:35:27;;;;;;;59.35;34.75;;;;;;;;;;6276649;28;21132;-73
2022/12/28 10:38:32;;;;;;;56.15;33.33;;;;;;;;;;6279680;28;20216;-72
2022/12/28 10:41:36;;;;;;;52.42;32.80;;;;;;;;;;6276275;28;20095;-73
2022/12/28 10:44:39;;;;;;;53.85;32.17;;;;;;;;;;6278090;28;20049;-74
2022/12/28 10:47:43;;;;;;;50.33;31.67;;;;;;;;;;6278696;28;20049;-74
2022/12/28 10:50:50;;;;;;;48.67;30.02;;;;;;;;;;6274705;28;20357;-73
2022/12/28 10:53:54;;;;;;;49.85;31.15;;;;;;;;;;6278005;28;20053;-73
2022/12/28 10:56:57;;;;;;;48.45;30.48;;;;;;;;;;6276245;28;20454;-74
2022/12/28 11:00:15;;;;;;;51.35;31.33;;;;;;;;;;6277216;28;20275;-73
2022/12/28 11:03:18;;;;;;;54.45;32.47;;;;;;;;;;6275183;28;20335;-73
2022/12/28 11:06:21;;;;;;;55.63;33.58;;;;;;;;;;6275946;28;20086;-73
2022/12/28 11:09:25;;;;;;;55.60;33.57;;;;;;;;;;6276525;28;20317;-74
2022/12/28 11:12:32;;;;;;;56.60;33.47;;;;;;;;;;6275587;28;20178;-73
2022/12/28 11:15:34;;;;;;;60.45;33.40;;;;;;;;;;6274764;28;20051;-73
2022/12/28 11:18:35;;;;;;;55.47;31.88;;;;;;;;;;6279042;28;20047;-75
2022/12/28 11:21:37;;;;;;;51.25;32.83;;;;;;;;;;6276610;28;20079;-73
2022/12/28 11:24:39;;;;;;;60.00;34.10;;;;;;;;;;6275067;28;20041;-74
2022/12/28 11:27:43;;;;;;;55.10;33.90;;;;;;;;;;6276704;28;20090;-73
2022/12/28 11:30:44;;;;;;;59.38;35.17;;;;;;;;;;6274991;28;20053;-73
2022/12/28 11:33:49;;;;;;;54.97;34.60;;;;;;;;;;6274740;28;20055;-72
2022/12/28 11:36:51;;;;;;;56.90;34.67;;;;;;;;;;6276221;28;20055;-74
2022/12/28 11:39:53;;;;;;;57.33;34.85;;;;;;;;;;6276534;28;20056;-74
2022/12/28 11:42:56;;;;;;;57.42;34.63;;;;;;;;;;6276478;28;20739;-74
2022/12/28 11:45:59;;;;;;;58.47;35.90;;;;;;;;;;6275445;28;20086;-73
2022/12/28 11:49:02;;;;;;;56.58;35.47;;;;;;;;;;6274832;28;20044;-73
2022/12/28 11:52:43;;;;;;;58.65;35.22;;;;;;;;;;6275955;28;20048;-73
2022/12/28 11:56:04;;;;;;;60.42;34.33;;;;;;;;;;6273740;28;20053;-73
2022/12/28 11:59:21;;;;;;;58.03;34.72;;;;;;;;;;6278116;28;20041;-71
2022/12/28 12:02:40;;;;;;;57.83;34.95;;;;;;;;;;6275208;28;20049;-72
2022/12/28 12:05:50;;;;;;;60.90;35.88;;;;;;;;;;6274086;28;20045;-72
2022/12/28 12:08:51;;;;;;;65.18;35.78;;;;;;;;;;6275846;28;20090;-73
2022/12/28 12:11:54;;;;;;;60.72;34.95;;;;;;;;;;6277934;28;20134;-71
2022/12/28 12:15:02;;;;;;;58.30;34.35;;;;;;;;;;6281460;28;20279;-73
2022/12/28 12:18:06;;;;;;;61.97;36.53;;;;;;;;;;6281298;28;20048;-72
2022/12/28 12:21:09;;;;;;;61.13;36.80;;;;;;;;;;6279926;28;20060;-73
2022/12/28 12:24:18;;;;;;;64.10;36.85;;;;;;;;;;6280059;28;20371;-73
2022/12/28 12:27:27;;;;;;;60.58;36.25;;;;;;;;;;6278082;28;20233;-73
2022/12/28 12:30:31;;;;;;;65.05;37.15;;;;;;;;;;6279189;28;20251;-72
2022/12/28 12:33:36;;;;;;;61.95;35.75;;;;;;;;;;6280273;28;20049;-72
2022/12/28 12:37:08;;;;;;;64.90;36.47;;;;;;;;;;6280385;28;20399;-72
2022/12/28 12:40:58;;;;;;;72.28;38.65;;;;;;;;;;6279302;28;20126;-72
2022/12/28 12:44:14;;;;;;;65.18;37.17;;;;;;;;;;6276729;28;20328;-74
2022/12/28 12:47:44;;;;;;;68.15;40.10;;;;;;;;;;6278618;28;20249;-71
2022/12/28 12:51:03;;;;;;;65.47;39.00;;;;;;;;;;6251179;28;20049;-72
2022/12/28 12:54:17;;;;;;;71.57;39.05;;;;;;;;;;6278692;28;20089;-71
2022/12/28 12:57:22;;;;;;;66.38;37.97;;;;;;;;;;6278873;28;20099;-72
2022/12/28 13:00:28;;;;;;;61.50;37.35;;;;;;;;;;6278128;28;20052;-71
2022/12/28 13:03:36;;;;;;;71.88;39.80;;;;;;;;;;6279526;28;20106;-68
2022/12/28 13:06:39;;;;;;;67.20;36.92;;;;;;;;;;6276123;28;20068;-72
2022/12/28 13:09:42;;;;;;;68.70;39.20;;;;;;;;;;6280358;28;20045;-72
2022/12/28 13:12:44;;;;;;;71.32;39.20;;;;;;;;;;6278354;28;20053;-73
2022/12/28 13:15:45;;;;;;;70.70;39.30;;;;;;;;;;6277484;28;20065;-72
2022/12/28 13:18:56;;;;;;;67.18;40.00;;;;;;;;;;6275590;28;20280;-72
2022/12/28 13:21:58;;;;;;;73.75;40.47;;;;;;;;;;6280610;28;20044;-72
2022/12/28 13:25:00;;;;;;;72.30;41.05;;;;;;;;;;6276718;28;20051;-72
2022/12/28 13:28:03;;;;;;;70.20;40.60;;;;;;;;;;6278448;28;20057;-71
2022/12/28 13:31:08;;;;;;;68.83;39.93;;;;;;;;;;6279560;28;20051;-73
2022/12/28 13:34:18;;;;;;;67.10;39.75;;;;;;;;;;6277222;28;20654;-72
2022/12/28 13:37:21;;;;;;;71.25;39.60;;;;;;;;;;6278628;28;20059;-72
2022/12/28 13:40:22;;;;;;;69.32;39.17;;;;;;;;;;6279208;28;20056;-73
2022/12/28 13:43:58;;;;;;;70.88;39.70;;;;;;;;;;6277296;28;20098;-72
2022/12/28 13:47:04;;;;;;;70.72;38.63;;;;;;;;;;6275370;28;20037;-72
2022/12/28 13:50:10;;;;;;;71.65;39.20;;;;;;;;;;6278563;28;20045;-72
2022/12/28 13:53:14;;;;;;;77.55;40.25;;;;;;;;;;6279192;28;20121;-72
2022/12/28 13:56:17;;;;;;;72.82;38.58;;;;;;;;;;6275526;28;20275;-72
2022/12/28 13:59:19;;;;;;;72.65;39.53;;;;;;;;;;6280239;28;20150;-73
2022/12/28 14:02:22;;;;;;;73.80;39.15;;;;;;;;;;6276429;28;20049;-72
2022/12/28 14:05:26;;;;;;;74.15;39.92;;;;;;;;;;6277562;28;20053;-72
2022/12/28 14:08:28;;;;;;;71.10;38.03;;;;;;;;;;6275525;28;20053;-73
2022/12/28 14:11:30;;;;;;;72.88;39.67;;;;;;;;;;6276911;28;20048;-72
2022/12/28 14:14:32;;;;;;;73.65;39.38;;;;;;;;;;6277068;28;20048;-71
2022/12/28 14:17:35;;;;;;;71.85;38.97;;;;;;;;;;6277126;28;20045;-71
2022/12/28 14:20:47;;;;;;;76.60;39.80;;;;;;;;;;6279040;28;20339;-70
2022/12/28 14:23:49;;;;;;;75.63;39.63;;;;;;;;;;6276534;28;20459;-71
2022/12/28 14:26:53;;;;;;;74.68;38.92;;;;;;;;;;6276602;28;20052;-72
2022/12/28 14:29:55;;;;;;;76.57;36.63;;;;;;;;;;6275361;28;20056;-69
2022/12/28 14:32:58;;;;;;;70.45;38.28;;;;;;;;;;6276135;28;20047;-72
2022/12/28 14:36:02;;;;;;;71.80;36.95;;;;;;;;;;6272581;28;20125;-71
2022/12/28 14:39:04;;;;;;;74.75;38.97;;;;;;;;;;6279054;28;20051;-71
2022/12/28 14:42:15;;;;;;;76.10;38.58;;;;;;;;;;6273576;28;20049;-72
2022/12/28 14:45:34;;;;;;;76.05;37.85;;;;;;;;;;6276822;28;20120;-73
2022/12/28 14:48:39;;;;;;;71.60;36.95;;;;;;;;;;6276344;28;20352;-72
2022/12/28 14:51:41;;;;;;;;;;;;;;;;;;6277901;28;20049;-72
2022/12/28 14:54:44;;;;;;;72.90;36.47;;;;;;;;;;6275584;28;19975;-72
2022/12/28 14:57:47;;;;;;;71.70;37.22;;;;;;;;;;6280196;28;20057;-71
2022/12/28 15:00:56;;;;;;;73.18;36.25;;;;;;;;;;6278522;28;20057;-72
2022/12/28 15:04:00;;;;;;;71.65;36.15;;;;;;;;;;6276473;28;20041;-72
2022/12/28 15:07:04;;;;;;;71.93;35.90;;;;;;;;;;6278022;28;20037;-72
2022/12/28 15:10:07;;;;;;;75.45;38.17;;;;;;;;;;6274715;28;20056;-73
2022/12/28 15:13:09;;;;;;;75.85;37.22;;;;;;;;;;6278480;28;20082;-73
2022/12/28 15:16:11;;;;;;;72.60;35.85;;;;;;;;;;6277354;28;20056;-72
2022/12/28 15:19:13;;;;;;;66.60;35.05;;;;;;;;;;6275930;28;20052;-72
2022/12/28 15:22:16;;;;;;;68.22;34.65;;;;;;;;;;6275570;28;20044;-72
2022/12/28 15:25:17;;;;;;;66.28;34.92;;;;;;;;;;6275259;28;20044;-72
2022/12/28 15:28:19;;;;;;;66.88;34.38;;;;;;;;;;6278603;28;20221;-70
2022/12/28 15:31:22;;;;;;;70.35;35.03;;;;;;;;;;6276362;28;20060;-72
2022/12/28 15:34:23;;;;;;;66.13;35.35;;;;;;;;;;6274431;28;20053;-72
2022/12/28 15:37:27;;;;;;;67.15;35.45;;;;;;;;;;6277520;28;20051;-70
2022/12/28 15:40:28;;;;;;;74.90;35.90;;;;;;;;;;6274825;28;20697;-72
2022/12/28 15:43:30;;;;;;;71.57;35.67;;;;;;;;;;6280672;28;20463;-72
2022/12/28 15:46:32;;;;;;;69.30;35.55;;;;;;;;;;6280113;28;20240;-72
2022/12/28 15:49:34;;;;;;;69.63;36.40;;;;;;;;;;6285565;28;20095;-72
2022/12/28 15:52:37;;;;;;;68.80;35.65;;;;;;;;;;6279741;28;21590;-74
2022/12/28 15:55:39;;;;;;;69.07;35.53;;;;;;;;;;6280206;28;20060;-73
2022/12/28 15:58:41;;;;;;;67.13;33.80;;;;;;;;;;6282710;28;20045;-74
2022/12/28 16:01:43;;;;;;;65.05;34.53;;;;;;;;;;6280218;28;20272;-71
2022/12/28 16:04:45;;;;;;;64.38;33.75;;;;;;;;;;6280358;28;20079;-71
2022/12/28 16:07:48;;;;;;;65.28;33.20;;;;;;;;;;6280257;28;20091;-70
2022/12/28 16:10:49;;;;;;;63.33;33.20;;;;;;;;;;6281202;28;20346;-73
2022/12/28 16:13:52;;;;;;;65.50;33.53;;;;;;;;;;6278380;28;20049;-71
2022/12/28 16:16:54;;;;;;;66.57;34.55;;;;;;;;;;6282375;28;20045;-71
2022/12/28 16:19:55;;;;;;;67.93;33.50;;;;;;;;;;6281066;28;20049;-70
2022/12/28 16:22:58;;;;;;;63.25;34.10;;;;;;;;;;6281692;28;20108;-74
2022/12/28 16:26:01;;;;;;;66.53;34.15;;;;;;;;;;6283237;28;20102;-71
2022/12/28 16:29:02;;;;;;;64.55;33.65;;;;;;;;;;6280584;28;20120;-72
2022/12/28 16:32:05;;;;;;;62.90;33.33;;;;;;;;;;6277689;28;20317;-72
2022/12/28 16:35:08;;;;;;;61.35;32.30;;;;;;;;;;6278157;28;20095;-73
2022/12/28 16:38:11;;;;;;;62.03;33.72;;;;;;;;;;6279902;28;20045;-71
2022/12/28 16:41:13;;;;;;;65.40;35.08;;;;;;;;;;6279269;28;20102;-72
2022/12/28 16:44:18;;;;;;;62.53;34.03;;;;;;;;;;6279586;28;20052;-72
2022/12/28 16:47:20;;;;;;;67.18;34.38;;;;;;;;;;6279661;28;20052;-71
2022/12/28 16:50:21;;;;;;;61.25;33.65;;;;;;;;;;6282342;28;20074;-72
2022/12/28 16:53:24;;;;;;;64.07;32.83;;;;;;;;;;6280574;28;20260;-74
2022/12/28 16:56:26;;;;;;;62.38;35.20;;;;;;;;;;6278783;28;20324;-71
2022/12/28 16:59:28;;;;;;;69.30;33.05;;;;;;;;;;6280035;28;20053;-72
2022/12/28 17:02:30;;;;;;;60.60;32.05;;;;;;;;;;6281112;28;20086;-72
2022/12/28 17:05:33;;;;;;;62.58;31.35;;;;;;;;;;6280033;28;20106;-71
2022/12/28 17:08:36;;;;;;;55.38;29.80;;;;;;;;;;6278597;28;20052;-71
2022/12/28 17:11:37;;;;;;;59.33;31.85;;;;;;;;;;6276408;28;20048;-71
2022/12/28 17:14:39;;;;;;;68.90;36.40;;;;;;;;;;6279406;28;20126;-71
2022/12/28 17:17:41;;;;;;;67.47;33.72;;;;;;;;;;6281841;28;20051;-72
2022/12/28 17:20:44;;;;;;;65.07;35.22;;;;;;;;;;6278616;28;20391;-72
2022/12/28 17:23:47;;;;;;;66.15;35.17;;;;;;;;;;6279404;28;20090;-71
2022/12/28 17:26:49;;;;;;;64.13;35.13;;;;;;;;;;6277490;28;21175;-71
2022/12/28 17:29:51;;;;;;;66.72;35.88;;;;;;;;;;6279572;28;20286;-71
2022/12/28 17:32:52;;;;;;;68.50;36.28;;;;;;;;;;6278068;28;20075;-71
2022/12/28 17:35:55;;;;;;;71.70;37.40;;;;;;;;;;6278049;28;20044;-70
2022/12/28 17:38:58;;;;;;;67.95;37.78;;;;;;;;;;6281334;28;20052;-71
2022/12/28 17:42:00;;;;;;;67.68;36.10;;;;;;;;;;6277460;28;20048;-73
2022/12/28 17:45:01;;;;;;;69.47;35.72;;;;;;;;;;6278017;28;20044;-74
2022/12/28 17:48:04;;;;;;;70.57;37.85;;;;;;;;;;6276561;28;20057;-73
2022/12/28 17:51:06;;;;;;;67.82;36.17;;;;;;;;;;6277994;28;20321;-74
2022/12/28 17:54:10;;;;;;;66.47;35.95;;;;;;;;;;6275913;28;20045;-73
2022/12/28 17:57:11;;;;;;;69.95;37.75;;;;;;;;;;6275421;28;20213;-74
2022/12/28 18:00:14;;;;;;;68.97;37.55;;;;;;;;;;6277157;28;20053;-75
2022/12/28 18:03:16;;;;;;;70.45;37.58;;;;;;;;;;6277107;28;20064;-75
2022/12/28 18:06:18;;;;;;;66.40;37.40;;;;;;;;;;6275387;28;20387;-75
2022/12/28 18:09:21;;;;;;;69.32;36.45;;;;;;;;;;6279225;28;20059;-80
2022/12/28 18:12:22;;;;;;;68.80;37.45;;;;;;;;;;6274528;28;20056;-76